• Join FlightAware (Why Join?)
  • Login
  • US Flag 
02:07AM EDT


 

Airport Tracker/Info


-or-


 

Live Flight TrackerFlight Track Log ✈ N2465X ✈ 19-May-2013 ✈ KIIB - KFCM

Flight Track Log - Related Links

Times and Time Zones

All times are in EDT time to prevent confusion due to time zone crossing. See the N2465X flight status page for this flight to view local times or setup timezone preferences in your user account.

Time Position Orientation Groundspeed Altitude Reporting Facility
EDT Latitude Longitude Course Direction KTS MPH feet Rate Location/Type
11:13AM 42.7667 -92.2047 336° Northwest 135 155 4,500  Level Minneapolis Center
11:14AM 42.7933 -92.2189 339° North 131 151 4,700 120 Climbing Minneapolis Center
11:15AM 42.8358 -92.2364 343° North 131 151 4,800  Climbing Minneapolis Center
11:16AM 42.6558 -92.0695 336° Northwest  Level Estimated
11:16AM 42.8819 -92.2433 354° North 135 155 4,800  Level Minneapolis Center
11:17AM 42.6955 -92.0939 336° Northwest  Level Estimated
11:17AM 42.9300 -92.2508 353° North 141 162 4,800  Level Minneapolis Center
11:18AM 42.7353 -92.1184 336° Northwest  Level Estimated
11:18AM 42.9692 -92.2558 355° North 142 163 4,800  Level Minneapolis Center
11:19AM 43.0000 -92.2600 354° North 142 163 4,800  Level Minneapolis Center
11:20AM 43.0469 -92.2589 North 141 162 4,800 -120 Level Minneapolis Center
11:21AM 43.0872 -92.2575 North 143 165 4,600 -240 Descending Minneapolis Center
11:22AM 43.1267 -92.2508 North 143 165 4,400 -180 Descending Minneapolis Center
11:23AM 43.1767 -92.2472 North 146 168 4,300  Descending Minneapolis Center
11:24AM 43.2178 -92.2508 356° North 148 170 4,400  Climbing Minneapolis Center
11:25AM 43.2589 -92.2569 354° North 150 173 4,300 -240 Descending Minneapolis Center
11:26AM 43.2894 -92.3044 311° West 150 173 4,000 -180 Descending Minneapolis Center
11:27AM 43.3125 -92.3478 306° West 143 165 4,000  Level Minneapolis Center
11:28AM 43.3353 -92.3886 307° West 138 159 4,000  Level Minneapolis Center
11:29AM 43.3600 -92.4375 305° West 145 167 4,000  Level Minneapolis Center
11:30AM 43.3856 -92.4767 312° West 141 162 4,100 240 Climbing Minneapolis Center
11:31AM 43.4153 -92.5128 319° Northwest 132 152 4,500 300 Climbing Minneapolis Center
11:32AM 43.4461 -92.5386 329° Northwest 130 150 4,800 180 Climbing Minneapolis Center
11:33AM 43.4742 -92.5644 326° Northwest 126 145 4,900 60 Climbing Minneapolis Center
11:35AM 43.5061 -92.5908 329° Northwest 126 145 5,000 60 Climbing Minneapolis Center
11:36AM 43.5347 -92.6175 326° Northwest 126 145 5,100  Climbing Minneapolis Center
11:37AM 43.5692 -92.6436 331° Northwest 133 153 5,000 -120 Descending Minneapolis Center
11:38AM 43.6022 -92.6692 331° Northwest 139 160 4,900 -180 Descending Minneapolis Center
11:39AM 43.6358 -92.6981 328° Northwest 143 165 4,700 -120 Descending Minneapolis Center
11:40AM 43.6733 -92.7269 331° Northwest 145 167 4,700 -60 Level Minneapolis Center
11:41AM 43.7039 -92.7456 336° Northwest 144 166 4,600 -120 Descending Minneapolis Center
11:42AM 43.7464 -92.7672 340° North 142 163 4,500  Descending Minneapolis Center
11:43AM 43.7825 -92.7889 337° Northwest 133 153 4,600 120 Climbing Minneapolis Center
11:44AM 43.8167 -92.8069 339° North 132 152 4,800  Climbing Minneapolis Center
11:45AM 43.8558 -92.8239 343° North 139 160 4,700 -60 Descending Minneapolis Center
11:46AM 43.8914 -92.8458 336° Northwest 141 162 4,700 -60 Level Minneapolis Center
11:47AM 43.9272 -92.8683 336° Northwest 144 166 4,600  Descending Minneapolis Center
11:48AM 43.9644 -92.8922 335° Northwest 138 159 4,700  Climbing Minneapolis Center
11:49AM 43.9994 -92.9150 335° Northwest 141 162 4,700  Level Minneapolis Center
11:50AM 44.0378 -92.9392 336° Northwest 141 162 4,700 -60 Level Minneapolis Center
11:51AM 44.0714 -92.9628 333° Northwest 138 159 4,600 -60 Descending Minneapolis Center
11:52AM 44.1061 -92.9850 335° Northwest 139 160 4,600 -180 Level Minneapolis Center
11:53AM 44.1492 -93.0164 332° Northwest 144 166 4,300 -300 Descending Minneapolis Center
11:54AM 44.1847 -93.0517 325° Northwest 146 168 4,100 -120 Descending Minneapolis Center
11:55AM 44.2178 -93.0828 326° Northwest 145 167 4,100 -180 Level Minneapolis Center
11:56AM 44.2567 -93.1133 331° Northwest 151 174 3,800 -300 Descending Minneapolis Center
11:57AM 44.2944 -93.1447 329° Northwest 160 184 3,600 -180 Descending Minneapolis Center
11:58AM 44.3219 -93.1622 336° Northwest 156 180 3,500 -240 Descending Minneapolis Center
11:59AM 44.3692 -93.1953 333° Northwest 159 183 3,200 -300 Descending Minneapolis Center
12:00PM 44.4122 -93.2231 335° Northwest 169 194 2,900 -360 Descending Minneapolis Center
12:01PM 44.4572 -93.2569 332° Northwest 152 175 2,500 -300 Descending Minneapolis Center
12:02PM 44.4936 -93.2764 339° North 141 162 2,400  Descending Minneapolis Center
12:03PM 44.5275 -93.2939 340° North 131 151 2,500  Climbing Minneapolis Center
12:04PM 44.5619 -93.3036 349° North 127 146 2,500  Level Minneapolis Center
12:05PM 44.5931 -93.3261 333° Northwest 126 145 2,500  Level Minneapolis Center
12:06PM 44.6247 -93.3447 337° Northwest 122 140 2,600 -60 Climbing Minneapolis Center
12:08PM 44.6550 -93.3600 340° North 115 132 2,400 -120 Descending Minneapolis Center
12:09PM 44.6853 -93.3686 349° North 110 127 2,400  Level Minneapolis Center
12:10PM 44.7092 -93.3819 338° Northwest 115 132 2,400 -60 Level Minneapolis Center
12:11PM 44.7458 -93.4092 332° Northwest 105 121 2,300 -60 Descending Minneapolis Center
12:12PM 44.7728 -93.4264 336° Northwest 106 122 2,300  Level Minneapolis Center
12:13PM 44.8092 -93.4208 North 111 128 2,300 -240 Level Minneapolis Center
12:14PM 44.8147 -93.4561 283° West 100 115 1,900  Descending Minneapolis Center
12:15PM 44.8106 -93.4853 259° West 88 101 2,300 -180 Climbing Minneapolis Center
12:16PM 44.8314 -93.5036 328° Northwest 107 123 1,600 -600 Descending Minneapolis Center
12:17PM 44.8297 -93.4742 95° East 78 90 1,100 -540 Descending Minneapolis Center